Time;durP1;ratioP1;P1;durP2;ratioP2;P2;SDS_P1;SDS_P2;PMS_P1;PMS_P2;Temp;Humidity;BMP_temperature;BMP_pressure;BME280_temperature;BME280_humidity;BME280_pressure;Samples;Min_cycle;Max_cycle;Signal;HPM_P1;HPM_P2
2023/11/28 00:00:48;;;;;;;5.60;4.13;;;-1.20;99.90;;;;;;6168507;23;20417;-88
2023/11/28 00:03:19;;;;;;;5.60;5.18;;;-1.20;99.90;;;;;;6194068;23;20196;-85
2023/11/28 00:05:46;;;;;;;3.58;3.42;;;-1.20;99.90;;;;;;6195575;23;20207;-83
2023/11/28 00:08:13;;;;;;;5.75;5.43;;;-1.30;99.90;;;;;;6197669;23;20263;-79
2023/11/28 00:10:41;;;;;;;4.88;4.50;;;-1.20;99.90;;;;;;6194099;23;20188;-81
2023/11/28 00:13:09;;;;;;;4.78;4.45;;;-1.20;99.90;;;;;;6166935;23;20203;-85
2023/11/28 00:15:37;;;;;;;5.72;5.32;;;-1.30;99.90;;;;;;6141413;23;20177;-82
2023/11/28 00:18:07;;;;;;;3.85;3.65;;;-1.20;99.90;;;;;;6191527;23;20204;-82
2023/11/28 00:20:36;;;;;;;6.20;2.70;;;-1.20;99.90;;;;;;6193267;23;20165;-78
2023/11/28 00:23:03;;;;;;;4.57;4.18;;;-1.30;99.90;;;;;;6189289;23;20536;-84
2023/11/28 00:25:32;;;;;;;5.18;4.78;;;-1.30;99.90;;;;;;6188742;23;20200;-84
2023/11/28 00:28:01;;;;;;;10.73;6.70;;;-1.30;99.90;;;;;;6189704;23;20180;-85
2023/11/28 00:30:30;;;;;;;9.60;8.70;;;-1.30;99.90;;;;;;6189069;23;20176;-82
2023/11/28 00:32:57;;;;;;;7.53;6.88;;;-1.30;99.90;;;;;;6163583;23;20485;-82
2023/11/28 00:35:25;;;;;;;12.10;9.10;;;-1.30;99.90;;;;;;6162647;23;20173;-84
2023/11/28 00:37:54;;;;;;;7.30;6.28;;;-1.30;99.90;;;;;;6188831;23;20359;-85
2023/11/28 00:40:22;;;;;;;4.47;4.18;;;-1.30;99.90;;;;;;6189307;23;20192;-86
2023/11/28 00:42:50;;;;;;;5.93;5.43;;;-1.30;99.90;;;;;;6190216;23;20201;-85
2023/11/28 00:45:24;;;;;;;8.65;7.53;;;-1.30;99.90;;;;;;6165958;23;20431;-85
2023/11/28 00:47:52;;;;;;;4.55;4.30;;;-1.30;99.90;;;;;;6191275;23;20168;-83
2023/11/28 00:50:22;;;;;;;5.55;5.25;;;-1.30;99.90;;;;;;6191069;23;20477;-80
2023/11/28 00:52:54;;;;;;;5.13;4.80;;;-1.20;99.90;;;;;;6192201;23;20191;-84
2023/11/28 00:55:23;;;;;;;3.80;3.47;;;-1.20;99.90;;;;;;6168702;23;20208;-80
2023/11/28 00:57:51;;;;;;;6.30;4.63;;;-1.20;99.90;;;;;;6198716;23;20219;-83
2023/11/28 01:00:19;;;;;;;5.03;4.70;;;-1.20;99.90;;;;;;6198125;23;20225;-82
2023/11/28 01:02:46;;;;;;;5.35;4.93;;;-1.20;99.90;;;;;;6185350;23;20208;-81
2023/11/28 01:05:14;;;;;;;5.85;5.45;;;-1.20;99.90;;;;;;6210287;23;20169;-83
2023/11/28 01:07:42;;;;;;;7.30;6.63;;;-1.20;99.90;;;;;;6209303;23;20176;-81
2023/11/28 01:10:09;;;;;;;8.18;7.45;;;-1.20;99.90;;;;;;6175716;23;20296;-84
2023/11/28 01:12:37;;;;;;;7.20;6.80;;;-1.20;99.90;;;;;;6189931;23;20224;-83
2023/11/28 01:15:04;;;;;;;10.38;9.48;;;-1.20;99.90;;;;;;6190110;23;20205;-83
2023/11/28 01:17:31;;;;;;;7.00;5.25;;;-1.20;99.90;;;;;;6188947;23;20361;-83
2023/11/28 01:19:58;;;;;;;5.78;5.25;;;-1.20;99.90;;;;;;6192353;23;20173;-81
2023/11/28 01:22:26;;;;;;;9.60;5.38;;;-1.20;99.90;;;;;;6192315;23;20211;-87
2023/11/28 01:24:59;;;;;;;9.32;8.60;;;-1.20;99.90;;;;;;6167014;23;20397;-86
2023/11/28 01:27:26;;;;;;;16.90;8.18;;;-1.20;99.90;;;;;;6192764;23;20265;-84
2023/11/28 01:29:53;;;;;;;10.80;7.25;;;-1.20;99.90;;;;;;6190174;23;20184;-83
2023/11/28 01:32:20;;;;;;;4.32;4.03;;;-1.30;99.90;;;;;;6166285;23;20208;-86
2023/11/28 01:34:47;;;;;;;13.38;8.20;;;-1.20;99.90;;;;;;6191326;23;20229;-81
2023/11/28 01:37:18;;;;;;;8.68;7.82;;;-1.20;99.90;;;;;;6191296;23;20208;-85
2023/11/28 01:39:46;;;;;;;7.30;6.80;;;-1.20;99.90;;;;;;6191015;23;20206;-82
2023/11/28 01:42:14;;;;;;;10.35;8.50;;;-1.20;99.90;;;;;;6190441;23;20188;-85
2023/11/28 01:44:41;;;;;;;5.90;5.60;;;-1.20;99.90;;;;;;6190514;23;20261;-83
2023/11/28 01:47:11;;;;;;;7.45;7.00;;;-1.30;99.90;;;;;;6193982;23;20205;-82
2023/11/28 01:49:42;;;;;;;6.22;5.95;;;-1.20;99.90;;;;;;6192973;23;20512;-82
2023/11/28 01:52:10;;;;;;;4.72;4.43;;;-1.30;99.90;;;;;;6193790;23;20236;-85
2023/11/28 01:54:41;;;;;;;6.20;5.82;;;-1.30;99.90;;;;;;6192566;23;20177;-83
2023/11/28 01:57:09;;;;;;;9.50;8.75;;;-1.30;99.90;;;;;;6193806;23;20201;-81
2023/11/28 01:59:38;;;;;;;6.40;5.93;;;-1.30;99.90;;;;;;6195842;23;20184;-90
2023/11/28 02:02:07;;;;;;;7.35;6.82;;;-1.30;99.90;;;;;;6136983;23;20245;-87
2023/11/28 02:04:36;;;;;;;7.75;7.25;;;-1.30;99.90;;;;;;6170134;23;20204;-85
2023/11/28 02:07:04;;;;;;;4.57;4.30;;;-1.40;99.90;;;;;;6167388;23;20203;-82
2023/11/28 02:09:33;;;;;;;6.32;6.00;;;-1.40;99.90;;;;;;6167462;23;20204;-86
2023/11/28 02:12:01;;;;;;;4.70;4.45;;;-1.50;99.90;;;;;;6171008;23;20177;-80
2023/11/28 02:14:28;;;;;;;4.50;4.30;;;-1.40;99.90;;;;;;6178613;23;20177;-86
2023/11/28 02:17:06;;;;;;;11.32;6.97;;;-1.50;99.90;;;;;;6207647;23;20264;-82
2023/11/28 02:19:34;;;;;;;8.02;6.68;;;-1.40;99.90;;;;;;6212710;23;20185;-77
2023/11/28 02:22:02;;;;;;;8.82;7.97;;;-1.50;99.90;;;;;;6213012;23;20169;-80
2023/11/28 02:24:34;;;;;;;8.02;7.45;;;-1.60;99.90;;;;;;6202562;23;20256;-82
2023/11/28 02:27:01;;;;;;;8.23;7.57;;;-1.50;99.90;;;;;;6194648;23;20469;-80
2023/11/28 02:29:28;;;;;;;13.43;12.10;;;-1.60;99.90;;;;;;6166472;23;20248;-80
2023/11/28 02:31:55;;;;;;;5.10;4.78;;;-1.50;99.90;;;;;;6191661;23;20636;-84
2023/11/28 02:34:22;;;;;;;5.90;5.60;;;-1.50;99.90;;;;;;6191908;23;20208;-83
2023/11/28 02:36:50;;;;;;;7.43;6.93;;;-1.50;99.90;;;;;;6166236;23;20205;-80
2023/11/28 02:39:17;;;;;;;5.95;5.63;;;-1.50;99.90;;;;;;6167954;23;20183;-85
2023/11/28 02:41:44;;;;;;;10.82;9.98;;;-1.50;99.90;;;;;;6192264;23;20390;-85
2023/11/28 02:44:11;;;;;;;7.15;6.60;;;-1.50;99.90;;;;;;6193991;23;20204;-82
2023/11/28 02:46:39;;;;;;;7.13;6.53;;;-1.50;99.90;;;;;;6197851;23;20405;-85
2023/11/28 02:49:06;;;;;;;5.85;5.38;;;-1.50;99.90;;;;;;6197055;23;20378;-84
2023/11/28 02:51:33;;;;;;;6.43;5.57;;;-1.50;99.90;;;;;;6196477;23;20205;-82
2023/11/28 02:54:07;;;;;;;7.35;6.85;;;-1.50;99.90;;;;;;6196592;23;20481;-85
2023/11/28 02:56:34;;;;;;;8.23;7.72;;;-1.50;99.90;;;;;;6197159;23;20223;-83
2023/11/28 02:59:01;;;;;;;4.93;4.63;;;-1.50;99.90;;;;;;6197118;23;20184;-80
2023/11/28 03:01:28;;;;;;;10.00;9.18;;;-1.50;99.90;;;;;;6196475;23;20184;-80
2023/11/28 03:03:56;;;;;;;5.13;4.90;;;-1.50;99.90;;;;;;6197156;23;20393;-83
2023/11/28 03:06:23;;;;;;;4.82;4.43;;;-1.50;99.90;;;;;;6197736;23;20173;-86
2023/11/28 03:08:51;;;;;;;9.07;8.50;;;-1.50;99.90;;;;;;6202791;23;20177;-82
2023/11/28 03:11:19;;;;;;;4.80;4.50;;;-1.50;99.90;;;;;;6203772;23;20203;-86
2023/11/28 03:13:46;;;;;;;4.70;4.25;;;-1.50;99.90;;;;;;6199565;23;20181;-85
2023/11/28 03:16:13;;;;;;;5.57;5.28;;;-1.50;99.90;;;;;;6200916;23;20268;-84
2023/11/28 03:18:40;;;;;;;10.35;9.63;;;-1.50;99.90;;;;;;6199958;23;20182;-82
2023/11/28 03:21:08;;;;;;;5.32;4.82;;;-1.50;99.90;;;;;;6200220;23;20185;-84
2023/11/28 03:23:35;;;;;;;5.43;4.38;;;-1.50;99.90;;;;;;6199065;23;20200;-84
2023/11/28 03:26:02;;;;;;;5.07;4.72;;;-1.50;99.90;;;;;;6204849;23;20180;-81
2023/11/28 03:28:29;;;;;;;6.90;6.22;;;-1.50;99.90;;;;;;6197243;23;20187;-82
2023/11/28 03:30:56;;;;;;;3.55;3.35;;;-1.50;99.90;;;;;;6170929;23;20177;-83
2023/11/28 03:33:23;;;;;;;5.53;5.20;;;-1.50;99.90;;;;;;6196847;23;20362;-84
2023/11/28 03:35:50;;;;;;;7.75;4.53;;;-1.50;99.90;;;;;;6197093;23;20185;-84
2023/11/28 03:38:17;;;;;;;3.72;3.47;;;-1.50;99.90;;;;;;6196468;23;20706;-86
2023/11/28 03:40:44;;;;;;;4.15;3.85;;;-1.50;99.90;;;;;;6197021;23;20320;-82
2023/11/28 03:43:13;;;;;;;1.98;1.90;;;-1.50;99.90;;;;;;6197097;23;20217;-84
2023/11/28 03:45:40;;;;;;;3.05;2.95;;;-1.50;99.90;;;;;;6194813;23;20188;-83
2023/11/28 03:48:07;;;;;;;2.97;2.78;;;-1.50;99.90;;;;;;6194281;23;20173;-86
2023/11/28 03:50:36;;;;;;;2.67;2.47;;;-1.50;99.90;;;;;;6194401;23;20481;-81
2023/11/28 03:53:03;;;;;;;13.27;7.13;;;-1.50;99.90;;;;;;6195726;23;20188;-82
2023/11/28 03:55:30;;;;;;;4.03;3.72;;;-1.50;99.90;;;;;;6170398;23;20215;-83
2023/11/28 03:57:58;;;;;;;10.48;4.93;;;-1.50;99.90;;;;;;6195903;23;20180;-85
2023/11/28 04:00:26;;;;;;;5.43;4.93;;;-1.50;99.90;;;;;;6196854;23;20196;-84
2023/11/28 04:02:53;;;;;;;2.95;2.72;;;-1.50;99.90;;;;;;6196421;23;20177;-81
2023/11/28 04:05:20;;;;;;;13.25;7.80;;;-1.60;99.90;;;;;;6196369;23;20173;-83
2023/11/28 04:07:47;;;;;;;7.40;6.55;;;-1.60;99.90;;;;;;6196720;23;20176;-84
2023/11/28 04:10:14;;;;;;;3.53;3.30;;;-1.50;99.90;;;;;;6170526;23;20200;-82
2023/11/28 04:12:41;;;;;;;3.10;2.90;;;-1.50;99.90;;;;;;6172455;23;20227;-80
2023/11/28 04:15:09;;;;;;;7.03;6.53;;;-1.60;99.90;;;;;;6200059;23;20203;-83
2023/11/28 04:17:36;;;;;;;6.28;5.65;;;-1.50;99.90;;;;;;6210316;23;20169;-78
2023/11/28 04:20:04;;;;;;;5.70;3.95;;;-1.50;99.90;;;;;;6211768;23;20168;-81
2023/11/28 04:22:32;;;;;;;4.47;4.28;;;-1.50;99.90;;;;;;6212221;23;20165;-83
2023/11/28 04:24:58;;;;;;;3.70;3.40;;;-1.50;99.90;;;;;;6210276;23;20195;-81
2023/11/28 04:27:26;;;;;;;6.78;6.18;;;-1.50;99.90;;;;;;6201488;23;20176;-86
2023/11/28 04:29:53;;;;;;;3.75;3.28;;;-1.50;99.90;;;;;;6196348;23;20184;-79
2023/11/28 04:32:20;;;;;;;2.72;2.63;;;-1.50;99.90;;;;;;6194869;23;20532;-85
2023/11/28 04:34:47;;;;;;;4.68;4.32;;;-1.50;99.90;;;;;;6171942;23;20224;-81
2023/11/28 04:37:14;;;;;;;14.25;6.75;;;-1.50;99.90;;;;;;6169587;23;20236;-84
2023/11/28 04:39:43;;;;;;;3.72;3.50;;;-1.50;99.90;;;;;;6196439;23;20176;-84
2023/11/28 04:42:10;;;;;;;5.10;4.78;;;-1.50;99.90;;;;;;6170779;23;20201;-85
2023/11/28 04:44:37;;;;;;;3.38;3.22;;;-1.40;99.90;;;;;;6172802;23;20260;-81
2023/11/28 04:47:05;;;;;;;2.67;2.58;;;-1.50;99.90;;;;;;6203949;23;20197;-82
2023/11/28 04:49:32;;;;;;;4.25;3.88;;;-1.50;99.90;;;;;;6203015;23;20172;-83
2023/11/28 04:51:59;;;;;;;3.25;3.08;;;-1.50;99.90;;;;;;6197332;23;20504;-86
2023/11/28 04:54:26;;;;;;;3.10;3.00;;;-1.50;99.90;;;;;;6198223;23;20177;-85
2023/11/28 04:56:53;;;;;;;2.33;2.20;;;-1.40;99.90;;;;;;6198184;23;20185;-83
2023/11/28 04:59:20;;;;;;;4.50;3.08;;;-1.40;99.90;;;;;;6198254;23;20161;-85
2023/11/28 05:01:48;;;;;;;2.45;2.35;;;-1.40;99.90;;;;;;6197813;23;20207;-81
2023/11/28 05:04:16;;;;;;;3.05;2.95;;;-1.40;99.90;;;;;;6197448;23;20204;-81
2023/11/28 05:06:43;;;;;;;5.30;4.90;;;-1.50;99.90;;;;;;6196101;23;20232;-82
2023/11/28 05:09:17;;;;;;;2.90;2.75;;;-1.40;99.90;;;;;;6196325;23;20173;-79
2023/11/28 05:11:45;;;;;;;4.07;3.72;;;-1.40;99.90;;;;;;6197173;23;20577;-80
2023/11/28 05:14:12;;;;;;;5.10;4.80;;;-1.40;99.90;;;;;;6196852;23;20212;-85
2023/11/28 05:16:39;;;;;;;4.35;4.10;;;-1.40;99.90;;;;;;6196489;23;20237;-81
2023/11/28 05:19:19;;;;;;;4.57;4.15;;;-1.40;99.90;;;;;;6197800;23;20165;-79
2023/11/28 05:21:46;;;;;;;2.47;2.38;;;-1.40;99.90;;;;;;6196681;23;20204;-83
2023/11/28 05:24:13;;;;;;;3.70;2.63;;;-1.40;99.90;;;;;;6195812;23;20203;-80
2023/11/28 05:26:40;;;;;;;2.35;2.25;;;-1.40;99.90;;;;;;6170902;23;20536;-83
2023/11/28 05:29:07;;;;;;;5.35;4.88;;;-1.40;99.90;;;;;;6197079;23;20520;-82
2023/11/28 05:31:34;;;;;;;2.22;2.13;;;-1.40;99.90;;;;;;6169231;23;20494;-85
2023/11/28 05:34:02;;;;;;;7.15;6.47;;;-1.40;99.90;;;;;;6201693;23;20376;-77
2023/11/28 05:36:28;;;;;;;8.32;7.72;;;-1.50;99.90;;;;;;6211983;23;20184;-81
2023/11/28 05:38:56;;;;;;;4.28;4.10;;;-1.50;99.90;;;;;;6212330;23;20183;-83
2023/11/28 05:41:23;;;;;;;5.25;4.95;;;-1.40;99.90;;;;;;6187008;23;20168;-83
2023/11/28 05:43:51;;;;;;;2.83;2.70;;;-1.40;99.90;;;;;;6206348;23;20200;-81
2023/11/28 05:46:19;;;;;;;8.07;5.53;;;-1.40;99.90;;;;;;6199828;23;20173;-84
2023/11/28 05:48:45;;;;;;;2.95;2.70;;;-1.40;99.90;;;;;;6200958;23;20174;-86
2023/11/28 05:51:13;;;;;;;1.05;1.05;;;-1.40;99.90;;;;;;6202016;23;20200;-84
2023/11/28 05:53:40;;;;;;;4.05;3.83;;;-1.50;99.90;;;;;;6201237;23;20177;-83
2023/11/28 05:56:09;;;;;;;3.70;3.42;;;-1.40;99.90;;;;;;6199415;23;20196;-80
2023/11/28 05:58:39;;;;;;;4.63;4.32;;;-1.40;99.90;;;;;;6195532;23;20161;-79
2023/11/28 06:01:12;;;;;;;1.17;1.17;;;-1.50;99.90;;;;;;6195086;23;20490;-81
2023/11/28 06:03:39;;;;;;;3.72;3.53;;;-1.50;99.90;;;;;;6168713;23;20192;-80
2023/11/28 06:06:06;;;;;;;4.10;2.90;;;-1.40;99.90;;;;;;6195270;23;20244;-80
2023/11/28 06:08:34;;;;;;;6.80;3.47;;;-1.40;99.90;;;;;;6195807;23;20195;-80
2023/11/28 06:11:01;;;;;;;1.45;1.35;;;-1.40;99.90;;;;;;6170996;23;20181;-84
2023/11/28 06:13:28;;;;;;;3.80;2.78;;;-1.40;99.90;;;;;;6173441;23;20173;-82
2023/11/28 06:15:55;;;;;;;4.15;3.85;;;-1.50;99.90;;;;;;6185175;23;20189;-85
2023/11/28 06:18:22;;;;;;;4.22;3.70;;;-1.50;99.90;;;;;;6212500;23;20180;-83
2023/11/28 06:20:51;;;;;;;5.78;5.47;;;-1.40;99.90;;;;;;6188671;23;20201;-89
2023/11/28 06:23:22;;;;;;;5.20;4.85;;;-1.30;99.90;;;;;;6188799;23;20188;-84
2023/11/28 06:25:52;;;;;;;2.88;2.78;;;-1.40;99.90;;;;;;6165693;23;20153;-85
2023/11/28 06:28:19;;;;;;;2.88;1.52;;;-1.40;99.90;;;;;;6211572;23;20195;-80
2023/11/28 06:30:47;;;;;;;3.30;3.08;;;-1.50;99.90;;;;;;6175295;23;20197;-81
2023/11/28 06:33:15;;;;;;;3.75;3.55;;;-1.50;99.90;;;;;;6198724;23;20294;-81
2023/11/28 06:35:43;;;;;;;4.03;3.83;;;-1.50;99.90;;;;;;6198505;23;20517;-83
2023/11/28 06:38:10;;;;;;;4.97;4.50;;;-1.50;99.90;;;;;;6196255;23;20173;-79
2023/11/28 06:40:38;;;;;;;4.03;3.72;;;-1.50;99.90;;;;;;6196752;23;20362;-82
2023/11/28 06:43:05;;;;;;;2.92;2.83;;;-1.50;99.90;;;;;;6197366;23;20175;-82
2023/11/28 06:45:32;;;;;;;5.97;4.28;;;-1.50;99.90;;;;;;6196329;23;20224;-82
2023/11/28 06:48:00;;;;;;;3.08;2.45;;;-1.50;99.90;;;;;;6169006;23;20354;-79
2023/11/28 06:50:27;;;;;;;3.88;3.58;;;-1.50;99.90;;;;;;6196685;23;20621;-85
2023/11/28 06:52:54;;;;;;;2.90;2.70;;;-1.50;99.90;;;;;;6172205;23;20173;-78
2023/11/28 06:55:21;;;;;;;6.95;6.45;;;-1.60;99.90;;;;;;6198400;23;20478;-83
2023/11/28 06:57:48;;;;;;;4.50;3.70;;;-1.50;99.90;;;;;;6197028;23;20177;-84
2023/11/28 07:00:17;;;;;;;6.05;4.13;;;-1.50;99.90;;;;;;6197816;23;20177;-84
2023/11/28 07:02:46;;;;;;;5.38;5.07;;;-1.60;99.90;;;;;;6170122;23;20180;-85
2023/11/28 07:05:13;;;;;;;4.25;3.95;;;-1.50;99.90;;;;;;6171195;23;20193;-88
2023/11/28 07:07:43;;;;;;;3.17;2.97;;;-1.60;99.90;;;;;;6197752;23;20172;-86
2023/11/28 07:10:11;;;;;;;6.90;6.15;;;-1.50;99.90;;;;;;6172541;23;20169;-85
2023/11/28 07:12:38;;;;;;;1.95;1.85;;;-1.60;99.90;;;;;;6199295;23;20173;-86
2023/11/28 07:15:05;;;;;;;3.08;2.97;;;-1.50;99.90;;;;;;6170278;23;20173;-81
2023/11/28 07:17:33;;;;;;;2.60;2.50;;;-1.50;99.90;;;;;;6196329;23;20172;-84
2023/11/28 07:20:06;;;;;;;2.45;2.35;;;-1.50;99.90;;;;;;6196495;23;20200;-86
2023/11/28 07:22:33;;;;;;;2.72;2.53;;;-1.50;99.90;;;;;;6200436;23;20177;-81
2023/11/28 07:25:03;;;;;;;5.15;4.85;;;-1.50;99.90;;;;;;6202218;23;20193;-86
2023/11/28 07:27:30;;;;;;;13.82;5.20;;;-1.40;99.90;;;;;;6175838;23;20169;-82
2023/11/28 07:29:58;;;;;;;1.75;1.70;;;-1.40;99.90;;;;;;6172631;23;20496;-85
2023/11/28 07:32:28;;;;;;;3.38;3.13;;;-1.40;99.90;;;;;;6198797;23;20162;-86
2023/11/28 07:34:56;;;;;;;2.60;2.50;;;-1.40;99.90;;;;;;6171468;23;20184;-85
2023/11/28 07:37:23;;;;;;;1.60;1.50;;;-1.40;99.90;;;;;;6171591;23;20181;-82
2023/11/28 07:39:51;;;;;;;3.22;2.83;;;-1.40;99.90;;;;;;6198250;23;20200;-84
2023/11/28 07:42:19;;;;;;;3.30;2.17;;;-1.40;99.90;;;;;;6197247;23;20173;-83
2023/11/28 07:44:46;;;;;;;3.40;3.22;;;-1.40;99.90;;;;;;6171153;23;20224;-81
2023/11/28 07:47:13;;;;;;;5.47;4.95;;;-1.30;99.90;;;;;;6197306;23;20176;-79
2023/11/28 07:49:43;;;;;;;7.30;6.63;;;-1.30;99.90;;;;;;6198221;23;20173;-80
2023/11/28 07:52:11;;;;;;;6.20;5.68;;;-1.30;99.90;;;;;;6195524;23;20512;-81
2023/11/28 07:54:37;;;;;;;3.67;3.38;;;-1.40;99.90;;;;;;6196941;23;20201;-82
2023/11/28 07:57:06;;;;;;;4.38;3.08;;;-1.40;99.90;;;;;;6195340;23;20211;-81
2023/11/28 07:59:33;;;;;;;2.13;2.03;;;-1.40;99.90;;;;;;6196148;23;20176;-79
2023/11/28 08:02:00;;;;;;;2.63;2.53;;;-1.40;99.90;;;;;;6196658;23;20177;-81
2023/11/28 08:04:28;;;;;;;2.40;2.20;;;-1.40;99.90;;;;;;6170593;23;20567;-79
2023/11/28 08:06:55;;;;;;;2.05;1.95;;;-1.40;99.90;;;;;;6195591;23;20180;-83
2023/11/28 08:09:22;;;;;;;5.07;4.68;;;-1.30;99.90;;;;;;6195622;23;20173;-83
2023/11/28 08:11:51;;;;;;;1.52;1.52;;;-1.30;99.90;;;;;;6196226;23;20172;-79
2023/11/28 08:14:18;;;;;;;2.72;2.53;;;-1.30;99.90;;;;;;6196152;23;20189;-82
2023/11/28 08:16:49;;;;;;;3.28;2.85;;;-1.30;99.90;;;;;;6195084;23;20185;-83
2023/11/28 08:19:16;;;;;;;3.10;2.78;;;-1.30;99.90;;;;;;6197085;23;20173;-83
2023/11/28 08:21:43;;;;;;;4.60;4.30;;;-1.40;99.90;;;;;;6203738;23;20177;-81
2023/11/28 08:24:11;;;;;;;1.73;1.73;;;-1.50;99.90;;;;;;6204756;23;20173;-80
2023/11/28 08:26:38;;;;;;;2.88;2.67;;;-1.60;99.90;;;;;;6202937;23;20161;-81
2023/11/28 08:29:05;;;;;;;1.85;1.75;;;-1.50;99.90;;;;;;6204508;23;20177;-81
2023/11/28 08:31:34;;;;;;;4.15;3.85;;;-1.60;99.90;;;;;;6199045;23;20173;-86
2023/11/28 08:34:01;;;;;;;2.70;2.60;;;-1.60;99.90;;;;;;6195124;23;20209;-80
2023/11/28 08:36:30;;;;;;;4.15;3.75;;;-1.50;99.90;;;;;;6170940;23;20180;-79
2023/11/28 08:38:57;;;;;;;5.18;4.78;;;-1.60;99.90;;;;;;6171387;23;20216;-84
2023/11/28 08:41:24;;;;;;;3.58;3.40;;;-1.50;99.90;;;;;;6171202;23;20245;-81
2023/11/28 08:43:51;;;;;;;2.13;2.03;;;-1.50;99.90;;;;;;6195778;23;20185;-78
2023/11/28 08:46:18;;;;;;;3.20;2.97;;;-1.50;99.90;;;;;;6195705;23;20244;-81
2023/11/28 08:48:50;;;;;;;1.30;1.30;;;-1.60;99.90;;;;;;6171289;23;20168;-82
2023/11/28 08:51:17;;;;;;;2.97;2.88;;;-1.50;99.90;;;;;;6170011;23;20224;-80
2023/11/28 08:53:44;;;;;;;4.55;4.20;;;-1.50;99.90;;;;;;6169209;23;20204;-81
2023/11/28 08:56:13;;;;;;;1.65;1.65;;;-1.40;99.90;;;;;;6195379;23;20342;-86
2023/11/28 08:58:42;;;;;;;4.05;3.75;;;-1.40;99.90;;;;;;6170098;23;20370;-82
2023/11/28 09:01:09;;;;;;;5.18;4.05;;;-1.40;99.90;;;;;;6169260;23;20189;-82
2023/11/28 09:03:36;;;;;;;6.32;5.93;;;-1.40;99.90;;;;;;6169849;23;20179;-82
2023/11/28 09:06:04;;;;;;;3.97;3.58;;;-1.40;99.90;;;;;;6195466;23;20203;-82
2023/11/28 09:08:31;;;;;;;1.95;1.85;;;-1.40;99.90;;;;;;6196594;23;20192;-78
2023/11/28 09:10:58;;;;;;;2.35;2.25;;;-1.40;99.90;;;;;;6204758;23;20173;-85
2023/11/28 09:13:25;;;;;;;5.90;3.58;;;-1.40;99.90;;;;;;6201264;23;20193;-80
2023/11/28 09:15:55;;;;;;;4.22;4.00;;;-1.50;99.90;;;;;;6181474;23;20185;-85
2023/11/28 09:18:22;;;;;;;1.80;1.63;;;-1.40;99.90;;;;;;6179924;23;20193;-84
2023/11/28 09:20:50;;;;;;;3.95;3.75;;;-1.40;99.90;;;;;;6202539;23;20173;-79
2023/11/28 09:23:18;;;;;;;3.03;2.83;;;-1.40;99.90;;;;;;6202831;23;20177;-83
2023/11/28 09:25:45;;;;;;;3.42;3.25;;;-1.30;99.90;;;;;;6200724;23;20728;-80
2023/11/28 09:28:25;;;;;;;2.15;2.05;;;-1.30;99.90;;;;;;6201700;23;20149;-84
2023/11/28 09:30:53;;;;;;;4.22;4.03;;;-1.40;99.90;;;;;;6198743;23;20394;-83
2023/11/28 09:33:20;;;;;;;3.15;2.95;;;-1.40;99.90;;;;;;6195945;23;20173;-86
2023/11/28 09:35:47;;;;;;;2.58;2.45;;;-1.30;99.90;;;;;;6195175;23;20173;-82
2023/11/28 09:38:14;;;;;;;2.95;2.80;;;-1.40;99.90;;;;;;6169187;23;20183;-87
2023/11/28 09:40:41;;;;;;;3.00;2.90;;;-1.30;99.90;;;;;;6197337;23;20389;-81
2023/11/28 09:43:10;;;;;;;1.10;1.10;;;-1.30;99.90;;;;;;6196103;23;20216;-85
2023/11/28 09:45:42;;;;;;;4.72;4.32;;;-1.20;99.90;;;;;;6194542;23;20275;-85
2023/11/28 09:48:13;;;;;;;8.55;3.90;;;-1.20;99.90;;;;;;6197904;23;20169;-82
2023/11/28 09:50:45;;;;;;;2.58;2.45;;;-1.20;99.90;;;;;;6200212;23;20161;-84
2023/11/28 09:53:13;;;;;;;1.02;1.02;;;-1.00;99.90;;;;;;6196522;23;20373;-85
2023/11/28 09:55:41;;;;;;;2.72;2.55;;;-1.00;99.90;;;;;;6197004;23;20176;-82
2023/11/28 09:58:10;;;;;;;5.63;5.00;;;-1.20;99.90;;;;;;6197327;23;20177;-87
2023/11/28 10:00:38;;;;;;;3.10;2.90;;;-1.10;99.90;;;;;;6172621;23;20369;-81
2023/11/28 10:03:06;;;;;;;1.27;1.25;;;-1.10;99.90;;;;;;6172520;23;20192;-82
2023/11/28 10:05:33;;;;;;;4.75;3.53;;;-1.10;99.90;;;;;;6197822;23;20260;-87
2023/11/28 10:08:02;;;;;;;3.95;3.65;;;-1.10;99.90;;;;;;6197897;23;20517;-85
2023/11/28 10:10:32;;;;;;;2.28;2.17;;;-0.70;99.90;;;;;;6185037;23;20180;-81
2023/11/28 10:12:59;;;;;;;2.90;2.55;;;-1.00;99.90;;;;;;6212111;23;20169;-82
2023/11/28 10:15:27;;;;;;;4.47;4.07;;;-1.10;99.90;;;;;;6212402;23;20181;-79
2023/11/28 10:17:55;;;;;;;6.72;5.38;;;-0.90;99.90;;;;;;6212265;23;20176;-78
2023/11/28 10:20:27;;;;;;;4.20;3.90;;;-1.20;99.90;;;;;;6204290;23;20224;-85
2023/11/28 10:22:55;;;;;;;4.10;3.53;;;-1.10;99.90;;;;;;6204565;23;20161;-81
2023/11/28 10:25:25;;;;;;;4.55;4.00;;;-1.30;99.90;;;;;;6210750;23;20220;-84
2023/11/28 10:27:58;;;;;;;1.90;1.80;;;-1.10;99.90;;;;;;6211783;23;20208;-82
2023/11/28 10:30:27;;;;;;;2.55;2.45;;;-0.90;99.90;;;;;;6213524;23;20164;-82
2023/11/28 10:33:01;;;;;;;5.32;4.88;;;-1.00;99.90;;;;;;6212209;23;20173;-82
2023/11/28 10:35:42;;;;;;;5.22;4.82;;;-0.90;99.90;;;;;;6197869;23;20208;-82
2023/11/28 10:38:17;;;;;;;4.70;3.00;;;-1.20;99.90;;;;;;6199123;23;20184;-82
2023/11/28 10:40:48;;;;;;;1.95;1.80;;;-1.20;99.90;;;;;;6202724;23;20239;-82
2023/11/28 10:43:16;;;;;;;2.13;2.03;;;-1.10;99.90;;;;;;6204801;23;20180;-80
2023/11/28 10:45:45;;;;;;;5.65;5.15;;;-1.10;99.90;;;;;;6204329;23;20252;-82
2023/11/28 10:48:14;;;;;;;2.15;1.88;;;-0.90;99.90;;;;;;6205860;23;20202;-83
2023/11/28 10:50:42;;;;;;;2.50;2.40;;;-0.90;99.90;;;;;;6206897;23;20206;-83
2023/11/28 10:53:13;;;;;;;5.13;4.75;;;-0.90;99.90;;;;;;6202722;23;20361;-82
2023/11/28 10:56:00;;;;;;;2.13;2.03;;;-1.10;99.90;;;;;;6198625;23;20192;-82
2023/11/28 10:58:28;;;;;;;2.63;2.47;;;-1.00;99.90;;;;;;6173988;23;20161;-84
2023/11/28 11:01:02;;;;;;;3.00;2.90;;;-1.00;99.90;;;;;;6172949;23;20173;-82
2023/11/28 11:03:32;;;;;;;5.25;4.90;;;-1.10;99.90;;;;;;6196692;23;20161;-80
2023/11/28 11:05:59;;;;;;;5.15;4.85;;;-1.10;99.90;;;;;;6172654;23;20197;-83
2023/11/28 11:08:27;;;;;;;3.28;3.13;;;-1.20;99.90;;;;;;6196038;23;20157;-82
2023/11/28 11:10:55;;;;;;;4.38;4.03;;;-1.30;99.90;;;;;;6197592;23;20173;-82
2023/11/28 11:13:37;;;;;;;2.05;1.95;;;-1.40;99.90;;;;;;6197884;23;20161;-84
2023/11/28 11:16:12;;;;;;;5.75;5.18;;;-1.30;99.90;;;;;;6195929;23;20185;-83
2023/11/28 11:18:46;;;;;;;4.50;4.20;;;-1.30;99.90;;;;;;6198189;23;20227;-80
2023/11/28 11:21:24;;;;;;;2.80;2.05;;;-1.40;99.90;;;;;;6198417;23;20422;-83
2023/11/28 11:23:54;;;;;;;2.90;2.80;;;-1.40;99.90;;;;;;6171375;23;20171;-82
2023/11/28 11:26:36;;;;;;;4.15;3.22;;;-1.40;99.90;;;;;;6180083;23;20248;-82
2023/11/28 11:29:23;;;;;;;2.85;2.72;;;-1.30;99.90;;;;;;6175231;23;20181;-81
2023/11/28 11:31:55;;;;;;;1.52;1.45;;;-1.30;99.90;;;;;;6205107;23;20177;-83
2023/11/28 11:34:48;;;;;;;2.92;2.83;;;-1.50;99.90;;;;;;6199742;23;20228;-80
2023/11/28 11:37:21;;;;;;;3.88;3.58;;;-1.40;99.90;;;;;;6194799;23;20165;-82
2023/11/28 11:39:50;;;;;;;9.60;2.90;;;-1.40;99.90;;;;;;6196688;23;20149;-83
2023/11/28 11:42:22;;;;;;;1.75;1.40;;;-1.20;99.90;;;;;;6195379;23;20180;-83
2023/11/28 11:44:55;;;;;;;2.30;2.08;;;-1.20;99.90;;;;;;6197645;23;20192;-79
2023/11/28 11:47:26;;;;;;;3.45;3.25;;;-1.30;99.90;;;;;;6194872;23;20199;-84
2023/11/28 11:49:57;;;;;;;3.20;3.00;;;-1.20;99.90;;;;;;6196209;23;20227;-82
2023/11/28 11:52:25;;;;;;;4.13;3.83;;;-1.20;99.90;;;;;;6198017;23;20177;-80
2023/11/28 11:55:02;;;;;;;4.13;3.75;;;-1.20;99.90;;;;;;6172918;23;20220;-78
2023/11/28 11:57:30;;;;;;;0.88;0.88;;;-1.20;99.90;;;;;;6197666;23;20161;-85
2023/11/28 11:59:58;;;;;;;4.65;4.20;;;-1.30;99.90;;;;;;6199085;23;20402;-79
2023/11/28 12:02:40;;;;;;;21.05;4.55;;;-1.30;99.90;;;;;;6197821;23;20472;-82
2023/11/28 12:05:11;;;;;;;12.52;2.53;;;-1.30;99.90;;;;;;6197334;23;20232;-81
2023/11/28 12:07:42;;;;;;;3.15;2.95;;;-1.10;99.90;;;;;;6199786;23;20183;-80
2023/11/28 12:10:12;;;;;;;1.40;1.40;;;-1.20;99.90;;;;;;6172581;23;20239;-84
2023/11/28 12:12:40;;;;;;;4.95;4.57;;;-1.00;99.90;;;;;;6169042;23;20231;-81
2023/11/28 12:15:12;;;;;;;3.55;3.45;;;-1.10;99.90;;;;;;6194158;23;20193;-82
2023/11/28 12:17:40;;;;;;;1.85;1.75;;;-1.00;99.90;;;;;;6194546;23;20209;-79
2023/11/28 12:20:09;;;;;;;3.65;3.42;;;-0.90;99.90;;;;;;6195455;23;20216;-82
2023/11/28 12:22:36;;;;;;;0.90;0.90;;;-1.00;99.90;;;;;;6196338;23;20539;-80
2023/11/28 12:25:04;;;;;;;1.38;1.27;;;-0.90;99.90;;;;;;6201744;23;20173;-81
2023/11/28 12:27:32;;;;;;;16.63;7.90;;;-0.80;99.90;;;;;;6210772;23;20176;-82
2023/11/28 12:30:00;;;;;;;2.83;2.63;;;-1.10;99.90;;;;;;6186912;23;20164;-82
2023/11/28 12:32:27;;;;;;;1.95;1.85;;;-1.20;99.90;;;;;;6212262;23;20173;-82
2023/11/28 12:34:57;;;;;;;2.50;1.63;;;-1.10;99.90;;;;;;6183131;23;20212;-80
2023/11/28 12:37:25;;;;;;;13.82;4.15;;;-1.20;99.90;;;;;;6197747;23;20239;-82
2023/11/28 12:39:55;;;;;;;2.00;1.90;;;-1.20;99.90;;;;;;6195876;23;20207;-82
2023/11/28 12:42:28;;;;;;;4.13;3.80;;;-1.20;99.90;;;;;;6196249;23;20663;-81
2023/11/28 12:44:59;;;;;;;6.80;6.07;;;-1.20;99.90;;;;;;6168658;23;20177;-82
2023/11/28 12:47:29;;;;;;;2.05;1.95;;;-1.00;99.90;;;;;;6195010;23;20162;-81
2023/11/28 12:49:57;;;;;;;1.95;1.85;;;-1.20;99.90;;;;;;6197131;23;20177;-79
2023/11/28 12:52:25;;;;;;;8.95;8.15;;;-1.40;99.90;;;;;;6145998;23;20490;-83